Main page
METAR-TAF:

METAR-TAF

Airports :

Jaipur International Airport

Jaipur, India

latitude: 26-49N, longitude: 075-48E, elevation: 385 m

Current weather observation

The report was made 33 minutes ago, at 17:00 UTC
Calm wind
Temperature 24°C
Humidity 27%
Pressure 1016 hPa
Visibility: 2500 m
haze

METAR: VIJP 221700Z 00000KT 2500 HZ NSC 24/04 Q1016 NOSIG

Time: 23:03 (17:33 UTC)

Forecast

The report was made 3 hours and 33 minutes ago, at 14:00 UTC
Forecast valid from 22 at 15 UTC to 22 at 24 UTC
Wind 6 kt from the Northwest
Visibility: 2500 m
haze

TAF: VIJP 221400Z 2215/2224 32006KT 2500 HZ NSC

Weather observations and forecasts of more than 4000 airports (METAR and TAF reports).

The available stations are represented by yellow and red dots on the map.

Hover mouse over dot to see the name of the station.

Then click to see weather observations and forecasts.

To change the map : click on the green buttons with a black cross to zoom in, on the green button with a dash to zoom out, or on the green arrows for adjacent maps.


METAR-TAF: